Time;durP1;ratioP1;P1;durP2;ratioP2;P2;SDS_P1;SDS_P2;PMS_P1;PMS_P2;Temp;Humidity;BMP_temperature;BMP_pressure;BME280_temperature;BME280_humidity;BME280_pressure;Samples;Min_cycle;Max_cycle;Signal;HPM_P1;HPM_P2
2022/04/04 00:00:12;;;;;;;8.67;4.90;;;-3.30;99.90;;;;;;5078147;28;20189;-66
2022/04/04 00:02:38;;;;;;;10.90;5.73;;;-3.40;99.90;;;;;;5080276;28;20204;-66
2022/04/04 00:05:05;;;;;;;9.97;5.30;;;-3.30;99.90;;;;;;5085132;28;20793;-66
2022/04/04 00:07:30;;;;;;;12.40;5.90;;;-3.40;99.90;;;;;;5077818;28;20436;-66
2022/04/04 00:09:56;;;;;;;15.93;7.00;;;-3.40;99.90;;;;;;5082527;28;20783;-66
2022/04/04 00:12:22;;;;;;;11.67;5.87;;;-3.40;99.90;;;;;;5079554;28;20228;-64
2022/04/04 00:14:49;;;;;;;10.87;5.97;;;-3.40;99.90;;;;;;5075671;28;20193;-66
2022/04/04 00:17:14;;;;;;;13.73;6.10;;;-3.40;99.90;;;;;;5074208;28;20279;-65
2022/04/04 00:19:40;;;;;;;11.03;6.87;;;-3.40;99.90;;;;;;5080532;28;20447;-66
2022/04/04 00:22:06;;;;;;;11.90;5.83;;;-3.40;99.90;;;;;;5064985;28;20248;-66
2022/04/04 00:24:32;;;;;;;16.50;7.10;;;-3.40;99.90;;;;;;5074665;28;20253;-66
2022/04/04 00:26:58;;;;;;;10.80;6.43;;;-3.40;99.90;;;;;;5083899;28;20541;-67
2022/04/04 00:29:24;;;;;;;15.40;7.83;;;-3.40;99.90;;;;;;5081506;28;20525;-66
2022/04/04 00:31:50;;;;;;;16.07;7.37;;;-3.30;99.90;;;;;;5076267;28;20208;-65
2022/04/04 00:34:16;;;;;;;17.30;7.57;;;-3.40;99.90;;;;;;5081821;28;20473;-66
2022/04/04 00:36:43;;;;;;;14.33;7.70;;;-3.40;99.90;;;;;;5073284;28;20462;-66
2022/04/04 00:39:15;;;;;;;17.33;7.80;;;-3.40;99.90;;;;;;5077124;28;20195;-64
2022/04/04 00:41:44;;;;;;;15.70;7.20;;;-3.40;99.90;;;;;;5075146;28;20457;-66
2022/04/04 00:44:10;;;;;;;11.73;7.10;;;-3.40;99.90;;;;;;5082848;28;21288;-66
2022/04/04 00:46:40;;;;;;;14.20;7.30;;;-3.40;99.90;;;;;;5084647;28;20435;-66
2022/04/04 00:49:06;;;;;;;13.27;6.63;;;-3.50;99.90;;;;;;5076819;28;20541;-66
2022/04/04 00:51:32;;;;;;;17.00;9.07;;;-3.50;99.90;;;;;;5059779;28;21260;-64
2022/04/04 00:53:57;;;;;;;22.47;9.10;;;-3.60;99.90;;;;;;5076605;28;20560;-65
2022/04/04 00:56:26;;;;;;;12.33;6.80;;;-3.50;99.90;;;;;;5084520;28;20184;-66
2022/04/04 00:58:52;;;;;;;20.67;9.20;;;-3.50;99.90;;;;;;5075846;28;20191;-64
2022/04/04 01:01:18;;;;;;;13.47;6.97;;;-3.50;99.90;;;;;;5079930;28;20458;-66
2022/04/04 01:03:44;;;;;;;14.90;7.63;;;-3.50;99.90;;;;;;5083333;28;20208;-65
2022/04/04 01:06:09;;;;;;;15.30;7.23;;;-3.50;99.90;;;;;;5081574;28;20438;-65
2022/04/04 01:08:36;;;;;;;12.73;7.27;;;-3.50;99.90;;;;;;5077399;28;20279;-65
2022/04/04 01:11:02;;;;;;;18.20;8.47;;;-3.50;99.90;;;;;;5074583;28;20204;-65
2022/04/04 01:13:28;;;;;;;16.80;7.70;;;-3.50;99.90;;;;;;5073116;28;20500;-66
2022/04/04 01:15:53;;;;;;;17.63;8.00;;;-3.60;99.90;;;;;;5077227;28;20223;-66
2022/04/04 01:18:19;;;;;;;17.10;7.80;;;-3.50;99.90;;;;;;5064579;28;20278;-67
2022/04/04 01:20:45;;;;;;;25.23;8.53;;;-3.60;99.90;;;;;;5076356;28;20254;-66
2022/04/04 01:23:21;;;;;;;13.23;7.57;;;-3.70;99.90;;;;;;5074466;28;20214;-65
2022/04/04 01:25:47;;;;;;;15.90;8.57;;;-3.70;99.90;;;;;;5084735;28;20187;-66
2022/04/04 01:28:13;;;;;;;17.80;8.53;;;-3.80;99.90;;;;;;5073404;28;20879;-65
2022/04/04 01:30:39;;;;;;;15.60;8.40;;;-3.80;99.90;;;;;;5073225;28;20556;-66
2022/04/04 01:33:05;;;;;;;14.90;8.13;;;-3.80;99.90;;;;;;5066617;28;20508;-65
2022/04/04 01:35:30;;;;;;;16.30;8.07;;;-3.90;99.90;;;;;;5078108;28;20808;-65
2022/04/04 01:37:56;;;;;;;23.83;8.20;;;-3.90;99.90;;;;;;5064075;28;20188;-65
2022/04/04 01:40:22;;;;;;;19.43;8.00;;;-3.90;99.90;;;;;;5075266;28;20715;-66
2022/04/04 01:42:55;;;;;;;13.77;7.60;;;-3.90;99.90;;;;;;5071888;28;20223;-66
2022/04/04 01:46:23;;;;;;;15.57;7.37;;;-3.90;99.90;;;;;;5060011;28;20674;-66
2022/04/04 01:48:08;;;;;;;14.93;7.80;;;-3.90;99.90;;;;;;5075632;28;20430;-64
2022/04/04 01:50:34;;;;;;;15.63;6.60;;;-3.90;99.90;;;;;;5080175;28;20446;-66
2022/04/04 01:55:44;;;;;;;12.63;8.27;;;-3.90;99.90;;;;;;5080852;28;20433;-65
2022/04/04 01:58:10;;;;;;;18.23;7.83;;;-3.90;99.90;;;;;;5083113;28;20434;-66
2022/04/04 02:00:38;;;;;;;17.77;9.07;;;-3.90;99.90;;;;;;5083063;28;20196;-66
2022/04/04 02:03:04;;;;;;;17.40;7.30;;;-3.90;99.90;;;;;;5079780;28;20513;-66
2022/04/04 02:05:30;;;;;;;16.27;7.73;;;-4.00;99.90;;;;;;5077771;28;20442;-65
2022/04/04 02:07:55;;;;;;;16.90;8.57;;;-4.00;99.90;;;;;;5075080;28;21204;-66
2022/04/04 02:10:21;;;;;;;13.73;6.80;;;-4.00;99.90;;;;;;5074134;28;20189;-66
2022/04/04 02:12:47;;;;;;;16.70;7.73;;;-4.00;99.90;;;;;;5080407;28;20212;-65
2022/04/04 02:15:13;;;;;;;18.10;6.50;;;-4.00;99.90;;;;;;5075666;28;21049;-64
2022/04/04 02:17:38;;;;;;;12.67;6.50;;;-4.10;99.90;;;;;;5079007;28;20223;-66
2022/04/04 02:20:05;;;;;;;14.97;7.37;;;-4.10;99.90;;;;;;5087576;28;20200;-66
2022/04/04 02:22:30;;;;;;;11.50;7.07;;;-4.10;99.90;;;;;;5075250;28;20701;-65
2022/04/04 02:24:56;;;;;;;17.10;7.10;;;-4.20;99.90;;;;;;5082468;28;20530;-68
2022/04/04 02:27:22;;;;;;;10.40;6.60;;;-4.30;99.90;;;;;;5083082;28;20192;-65
2022/04/04 02:29:47;;;;;;;14.73;6.63;;;-4.30;99.90;;;;;;5086867;28;20195;-65
2022/04/04 02:32:13;;;;;;;10.20;6.17;;;-4.20;99.90;;;;;;5085034;28;20682;-66
2022/04/04 02:34:38;;;;;;;13.23;6.43;;;-4.20;99.90;;;;;;5070513;28;20287;-66
2022/04/04 02:37:04;;;;;;;15.10;6.83;;;-4.30;99.90;;;;;;5079508;28;20287;-67
2022/04/04 02:39:30;;;;;;;13.13;6.70;;;-4.30;99.90;;;;;;5065968;28;20216;-64
2022/04/04 02:41:56;;;;;;;18.57;8.00;;;-4.30;99.90;;;;;;5069402;28;20303;-64
2022/04/04 02:44:22;;;;;;;17.53;8.57;;;-4.30;99.90;;;;;;5075918;28;20542;-65
2022/04/04 02:46:48;;;;;;;13.77;7.93;;;-4.30;99.90;;;;;;5075487;28;20595;-65
2022/04/04 02:49:14;;;;;;;12.70;7.33;;;-4.30;99.90;;;;;;5083757;28;20467;-64
2022/04/04 02:51:40;;;;;;;17.27;7.10;;;-4.30;99.90;;;;;;5062857;28;20486;-65
2022/04/04 02:54:05;;;;;;;18.07;6.47;;;-4.30;99.90;;;;;;5069409;28;20283;-66
2022/04/04 02:56:31;;;;;;;10.63;6.50;;;-4.40;99.90;;;;;;5075281;28;20542;-67
2022/04/04 02:58:59;;;;;;;12.47;5.70;;;-4.40;99.90;;;;;;5067006;28;20211;-65
2022/04/04 03:01:25;;;;;;;16.00;6.43;;;-4.40;99.90;;;;;;5074193;28;20215;-63
2022/04/04 03:03:50;;;;;;;11.47;5.53;;;-4.40;99.90;;;;;;5079430;28;20458;-66
2022/04/04 03:06:16;;;;;;;16.70;6.90;;;-4.50;99.90;;;;;;5075827;28;20731;-64
2022/04/04 03:08:42;;;;;;;9.70;5.43;;;-4.50;99.90;;;;;;5073425;28;20234;-67
2022/04/04 03:11:07;;;;;;;14.30;6.33;;;-4.50;99.90;;;;;;5064764;28;20259;-66
2022/04/04 03:13:33;;;;;;;10.67;5.50;;;-4.50;99.90;;;;;;5085171;28;20192;-65
2022/04/04 03:15:59;;;;;;;31.73;4.87;;;-4.50;99.90;;;;;;5080410;28;20637;-65
2022/04/04 03:18:25;;;;;;;11.53;5.63;;;-4.50;99.90;;;;;;5058728;28;20189;-66
2022/04/04 03:20:52;;;;;;;11.17;5.50;;;-4.60;99.90;;;;;;5079646;28;20227;-65
2022/04/04 03:23:19;;;;;;;15.40;6.40;;;-4.60;99.90;;;;;;5078576;28;20458;-66
2022/04/04 03:25:45;;;;;;;11.60;5.60;;;-4.60;99.90;;;;;;5082963;28;20426;-66
2022/04/04 03:28:10;;;;;;;12.33;5.33;;;-4.60;99.90;;;;;;5083527;28;20471;-65
2022/04/04 03:30:36;;;;;;;11.33;5.73;;;-4.60;99.90;;;;;;5060366;28;20216;-64
2022/04/04 03:33:03;;;;;;;10.77;5.63;;;-4.60;99.90;;;;;;5083699;28;20191;-65
2022/04/04 03:35:31;;;;;;;9.67;5.80;;;-4.70;99.90;;;;;;5081360;28;20184;-65
2022/04/04 03:37:59;;;;;;;13.20;5.57;;;-4.70;99.90;;;;;;5070008;28;20436;-64
2022/04/04 03:40:26;;;;;;;13.40;7.10;;;-4.70;99.90;;;;;;5082811;28;20430;-66
2022/04/04 03:42:54;;;;;;;10.67;5.70;;;-4.60;99.90;;;;;;5068691;28;20896;-66
2022/04/04 03:45:20;;;;;;;8.93;5.17;;;-4.60;99.90;;;;;;5083695;28;20454;-66
2022/04/04 03:47:47;;;;;;;12.20;6.40;;;-4.60;99.90;;;;;;5067344;28;20434;-64
2022/04/04 03:50:13;;;;;;;12.30;5.80;;;-4.60;99.90;;;;;;5073236;28;20834;-65
2022/04/04 03:52:41;;;;;;;10.20;5.30;;;-4.70;99.90;;;;;;5086054;28;20450;-65
2022/04/04 03:55:08;;;;;;;11.07;5.63;;;-4.70;99.90;;;;;;5084200;28;20465;-66
2022/04/04 03:57:33;;;;;;;11.63;5.50;;;-4.80;99.90;;;;;;5086745;28;21077;-66
2022/04/04 03:59:59;;;;;;;13.50;6.50;;;-4.70;99.90;;;;;;5069408;28;20522;-66
2022/04/04 04:02:25;;;;;;;11.53;5.90;;;-4.70;99.90;;;;;;5078163;28;20282;-66
2022/04/04 04:04:51;;;;;;;15.10;5.67;;;-4.70;99.90;;;;;;5078981;28;20208;-67
2022/04/04 04:07:18;;;;;;;14.50;7.07;;;-4.70;99.90;;;;;;5078018;28;20256;-64
2022/04/04 04:09:44;;;;;;;17.70;6.20;;;-4.70;99.90;;;;;;5081987;28;20173;-65
2022/04/04 04:12:11;;;;;;;17.43;6.87;;;-4.70;99.90;;;;;;5078315;28;20443;-65
2022/04/04 04:14:38;;;;;;;13.40;6.43;;;-4.80;99.90;;;;;;5076857;28;20925;-64
2022/04/04 04:17:04;;;;;;;14.93;7.13;;;-4.70;99.90;;;;;;5074242;28;20490;-65
2022/04/04 04:22:15;;;;;;;15.00;6.13;;;-4.80;99.90;;;;;;5079636;28;20912;-64
2022/04/04 04:24:40;;;;;;;15.83;6.73;;;-4.70;99.90;;;;;;5079438;28;20481;-67
2022/04/04 04:27:07;;;;;;;14.27;7.37;;;-4.80;99.90;;;;;;5078523;28;21191;-66
2022/04/04 04:29:32;;;;;;;18.63;8.10;;;-4.80;99.90;;;;;;5078065;28;20177;-66
2022/04/04 04:31:58;;;;;;;16.30;6.40;;;-4.70;99.90;;;;;;5078376;28;20453;-67
2022/04/04 04:34:24;;;;;;;12.80;6.53;;;-4.70;99.90;;;;;;5077468;28;20658;-64
2022/04/04 04:36:51;;;;;;;12.40;5.93;;;-4.60;99.90;;;;;;5077560;28;20184;-66
2022/04/04 04:39:17;;;;;;;17.43;7.80;;;-4.60;99.90;;;;;;5077742;28;20200;-66
2022/04/04 04:41:43;;;;;;;22.73;8.97;;;-4.60;99.90;;;;;;5074094;28;20459;-66
2022/04/04 04:44:09;;;;;;;19.93;8.50;;;-4.70;99.90;;;;;;5074840;28;20569;-64
2022/04/04 04:46:34;;;;;;;20.50;9.77;;;-4.60;99.90;;;;;;5079411;28;20487;-66
2022/04/04 04:49:00;;;;;;;14.50;7.20;;;-4.60;99.90;;;;;;5073628;28;20193;-66
2022/04/04 04:51:26;;;;;;;12.37;7.67;;;-4.60;99.90;;;;;;5076734;28;20209;-65
2022/04/04 04:53:52;;;;;;;13.60;5.90;;;-4.60;99.90;;;;;;5071151;28;20648;-65
2022/04/04 04:56:18;;;;;;;12.50;6.13;;;-4.50;99.90;;;;;;5074329;28;20428;-65
2022/04/04 04:58:43;;;;;;;16.93;7.70;;;-4.50;99.90;;;;;;5072620;28;20645;-66
2022/04/04 05:01:09;;;;;;;11.80;6.40;;;-4.40;99.90;;;;;;5078670;28;20442;-66
2022/04/04 05:03:35;;;;;;;11.70;4.87;;;-4.40;99.90;;;;;;5077945;28;20211;-63
2022/04/04 05:06:00;;;;;;;18.87;7.47;;;-4.40;99.90;;;;;;5074517;28;20205;-65
2022/04/04 05:08:26;;;;;;;11.63;5.60;;;-4.50;99.90;;;;;;5073266;28;20220;-65
2022/04/04 05:10:52;;;;;;;11.87;6.07;;;-4.50;99.90;;;;;;5074075;28;20200;-64
2022/04/04 05:13:18;;;;;;;11.30;6.00;;;-4.40;99.90;;;;;;5068135;28;20189;-65
2022/04/04 05:15:44;;;;;;;16.30;6.90;;;-4.50;99.90;;;;;;5071242;28;20414;-65
2022/04/04 05:18:10;;;;;;;12.53;5.70;;;-4.40;99.90;;;;;;5080483;28;20471;-65
2022/04/04 05:20:36;;;;;;;12.40;6.03;;;-4.40;99.90;;;;;;5074218;28;20282;-65
2022/04/04 05:23:02;;;;;;;9.87;6.13;;;-4.30;99.90;;;;;;5068856;28;20242;-65
2022/04/04 05:25:28;;;;;;;18.70;7.97;;;-4.20;99.90;;;;;;5073642;28;20184;-64
2022/04/04 05:27:55;;;;;;;10.23;5.40;;;-4.10;99.90;;;;;;5071549;28;20815;-64
2022/04/04 05:30:21;;;;;;;17.73;7.00;;;-4.00;99.90;;;;;;5074588;28;20529;-65
2022/04/04 05:32:47;;;;;;;18.30;7.13;;;-4.00;99.90;;;;;;5070878;28;20553;-65
2022/04/04 05:35:14;;;;;;;12.73;5.80;;;-4.00;99.90;;;;;;5075323;28;20246;-65
2022/04/04 05:37:41;;;;;;;12.33;6.67;;;-4.00;99.90;;;;;;5070633;28;20423;-66
2022/04/04 05:40:07;;;;;;;12.13;5.73;;;-4.00;99.90;;;;;;5075161;28;20483;-65
2022/04/04 05:42:34;;;;;;;13.30;6.40;;;-3.90;99.90;;;;;;5080075;28;20928;-65
2022/04/04 05:44:59;;;;;;;13.53;5.27;;;-3.90;99.90;;;;;;5076314;28;20512;-64
2022/04/04 05:47:26;;;;;;;11.63;5.87;;;-3.90;99.90;;;;;;5080153;28;20439;-64
2022/04/04 05:49:51;;;;;;;18.53;6.97;;;-3.90;99.90;;;;;;5076521;28;20212;-66
2022/04/04 05:52:23;;;;;;;13.03;5.80;;;-3.80;99.90;;;;;;5078494;28;20435;-65
2022/04/04 05:54:57;;;;;;;10.30;5.73;;;-3.70;99.90;;;;;;5065986;28;20189;-65
2022/04/04 05:57:28;;;;;;;11.87;6.07;;;-3.60;99.90;;;;;;5079272;28;20411;-66
2022/04/04 05:59:54;;;;;;;9.10;4.53;;;-3.60;99.90;;;;;;5078610;28;20500;-67
2022/04/04 06:02:20;;;;;;;17.03;6.43;;;-3.50;99.90;;;;;;5068329;28;20442;-68
2022/04/04 06:04:46;;;;;;;14.60;6.00;;;-3.50;99.90;;;;;;5067247;28;20466;-67
2022/04/04 06:07:12;;;;;;;12.07;5.70;;;-3.40;99.90;;;;;;5069550;28;20509;-67
2022/04/04 06:09:38;;;;;;;8.40;4.87;;;-3.40;99.90;;;;;;5078409;28;20976;-68
2022/04/04 06:12:04;;;;;;;10.70;4.90;;;-3.40;99.90;;;;;;5071295;28;20475;-67
2022/04/04 06:14:29;;;;;;;10.23;4.83;;;-3.40;99.90;;;;;;5070718;28;20188;-68
2022/04/04 06:16:55;;;;;;;11.73;6.17;;;-3.30;99.90;;;;;;5063592;28;20565;-68
2022/04/04 06:19:21;;;;;;;9.50;6.30;;;-3.30;99.90;;;;;;5069139;28;20234;-68
2022/04/04 06:21:46;;;;;;;13.10;5.63;;;-3.20;99.90;;;;;;5068443;28;20736;-67
2022/04/04 06:24:12;;;;;;;10.67;4.50;;;-3.10;99.90;;;;;;5070199;28;20881;-67
2022/04/04 06:26:39;;;;;;;10.27;5.57;;;-2.90;99.90;;;;;;5074243;28;20281;-68
2022/04/04 06:29:09;;;;;;;12.97;4.97;;;-2.90;99.90;;;;;;5078967;28;20204;-68
2022/04/04 06:31:38;;;;;;;9.30;4.97;;;-2.80;99.90;;;;;;5075365;28;20475;-67
2022/04/04 06:34:04;;;;;;;9.70;5.10;;;-2.70;99.90;;;;;;5075858;28;20476;-66
2022/04/04 06:36:31;;;;;;;12.20;5.80;;;-2.60;99.90;;;;;;5065151;28;20498;-69
2022/04/04 06:38:57;;;;;;;13.40;5.07;;;-2.50;99.90;;;;;;5072301;28;20471;-67
2022/04/04 06:41:23;;;;;;;10.80;5.30;;;-2.50;99.90;;;;;;5069953;28;20476;-67
2022/04/04 06:43:50;;;;;;;11.43;4.50;;;-2.30;99.90;;;;;;5066494;28;20455;-67
2022/04/04 06:46:16;;;;;;;12.13;4.80;;;-2.30;99.90;;;;;;5066789;28;20909;-68
2022/04/04 06:48:42;;;;;;;7.57;4.23;;;-2.20;99.90;;;;;;5085386;28;20435;-67
2022/04/04 06:51:09;;;;;;;7.80;3.90;;;-2.10;99.90;;;;;;5074060;28;20435;-67
2022/04/04 06:53:34;;;;;;;13.90;4.27;;;-1.90;99.90;;;;;;5066861;28;20458;-66
2022/04/04 06:56:00;;;;;;;7.50;3.60;;;-1.80;99.90;;;;;;5065379;28;20459;-67
2022/04/04 06:58:26;;;;;;;9.63;4.70;;;-1.70;99.90;;;;;;5076970;28;20725;-67
2022/04/04 07:00:52;;;;;;;9.93;4.87;;;-1.60;99.90;;;;;;5077824;28;20283;-67
2022/04/04 07:03:17;;;;;;;8.03;3.97;;;-1.50;99.90;;;;;;5079029;28;20229;-67
2022/04/04 07:05:43;;;;;;;8.47;4.63;;;-1.40;99.90;;;;;;5071699;28;20193;-68
2022/04/04 07:08:10;;;;;;;13.53;4.60;;;-1.30;99.90;;;;;;5072615;28;20185;-68
2022/04/04 07:10:36;;;;;;;7.23;4.07;;;-1.10;99.90;;;;;;5068189;28;20466;-68
2022/04/04 07:13:04;;;;;;;5.40;3.63;;;-0.90;99.90;;;;;;5073527;28;20450;-65
2022/04/04 07:15:29;;;;;;;8.73;3.67;;;-0.50;99.90;;;;;;5074356;28;20510;-68
2022/04/04 07:17:55;;;;;;;9.27;4.00;;;-0.30;99.10;;;;;;5066136;28;20541;-67
2022/04/04 07:20:21;;;;;;;7.20;4.03;;;0.00;98.70;;;;;;5074293;28;20252;-66
2022/04/04 07:22:47;;;;;;;5.57;3.20;;;0.60;98.40;;;;;;5075427;28;20232;-66
2022/04/04 07:25:14;;;;;;;7.90;3.90;;;1.40;96.50;;;;;;5084451;28;20238;-66
2022/04/04 07:27:41;;;;;;;6.70;3.20;;;1.90;95.60;;;;;;5079708;28;20266;-67
2022/04/04 07:30:09;;;;;;;4.83;2.87;;;2.90;93.00;;;;;;5079049;28;20415;-67
2022/04/04 07:32:36;;;;;;;4.40;2.40;;;3.50;91.70;;;;;;5079833;28;20483;-67
2022/04/04 07:35:03;;;;;;;6.50;3.70;;;4.20;90.90;;;;;;5078905;28;20469;-67
2022/04/04 07:37:29;;;;;;;4.90;3.00;;;5.80;85.00;;;;;;5077077;28;20415;-66
2022/04/04 07:39:54;;;;;;;7.60;3.30;;;6.60;81.30;;;;;;5076933;28;20423;-68
2022/04/04 07:42:20;;;;;;;6.33;3.53;;;7.20;75.00;;;;;;5077203;28;20530;-67
2022/04/04 07:44:46;;;;;;;12.53;4.80;;;6.40;77.20;;;;;;5079301;28;20196;-66
2022/04/04 07:47:11;;;;;;;6.27;3.73;;;6.60;77.30;;;;;;5079339;28;20204;-67
2022/04/04 07:49:37;;;;;;;5.47;3.00;;;6.20;79.10;;;;;;5079778;28;20191;-67
2022/04/04 07:52:03;;;;;;;17.07;4.07;;;6.00;79.50;;;;;;5077194;28;20224;-67
2022/04/04 07:54:29;;;;;;;5.93;3.40;;;6.50;77.40;;;;;;5067905;28;20188;-67
2022/04/04 07:56:56;;;;;;;6.17;3.27;;;6.50;77.90;;;;;;5066137;28;20435;-68
2022/04/04 07:59:22;;;;;;;14.53;3.23;;;5.80;78.20;;;;;;5077076;28;20189;-67
2022/04/04 08:01:48;;;;;;;5.17;3.27;;;6.20;78.40;;;;;;5079970;28;20538;-67
2022/04/04 08:04:13;;;;;;;7.97;3.30;;;6.50;78.00;;;;;;5065585;28;20619;-67
2022/04/04 08:06:39;;;;;;;10.30;3.43;;;7.40;74.80;;;;;;5070707;28;20204;-68
2022/04/04 08:09:04;;;;;;;6.10;3.33;;;7.20;76.80;;;;;;5072045;28;20196;-67
2022/04/04 08:11:30;;;;;;;5.43;2.57;;;7.30;76.60;;;;;;5072819;28;20303;-67
2022/04/04 08:13:56;;;;;;;4.97;2.80;;;7.10;76.50;;;;;;5074124;28;20247;-69
2022/04/04 08:16:26;;;;;;;5.40;3.23;;;7.10;76.20;;;;;;5074410;28;20189;-67
2022/04/04 08:18:54;;;;;;;5.60;2.97;;;7.80;73.80;;;;;;5074846;28;20518;-68
2022/04/04 08:21:20;;;;;;;5.60;2.87;;;7.80;73.90;;;;;;5073680;28;20532;-68
2022/04/04 08:23:46;;;;;;;9.37;3.20;;;7.50;73.20;;;;;;5075025;28;20470;-68
2022/04/04 08:26:12;;;;;;;9.10;2.73;;;7.80;73.70;;;;;;5080479;28;20381;-68
2022/04/04 08:28:38;;;;;;;6.20;2.87;;;8.30;73.20;;;;;;5082803;28;20419;-68
2022/04/04 08:31:04;;;;;;;5.30;3.00;;;8.20;71.60;;;;;;5083541;28;20212;-68
2022/04/04 08:33:30;;;;;;;6.17;3.10;;;8.40;70.00;;;;;;5064937;28;20213;-68
2022/04/04 08:35:57;;;;;;;5.77;3.40;;;7.90;70.00;;;;;;5067704;28;20572;-67
2022/04/04 08:38:23;;;;;;;7.37;3.67;;;7.90;71.50;;;;;;5066144;28;20537;-67
2022/04/04 08:40:50;;;;;;;5.40;3.60;;;7.80;72.50;;;;;;5067123;28;20506;-68
2022/04/04 08:43:18;;;;;;;7.00;3.00;;;8.00;73.30;;;;;;5067692;28;20238;-68
2022/04/04 08:45:44;;;;;;;12.40;3.57;;;8.10;70.90;;;;;;5064682;28;20935;-68
2022/04/04 08:48:10;;;;;;;8.43;3.20;;;8.00;70.40;;;;;;5070520;28;20449;-66
2022/04/04 08:50:39;;;;;;;6.57;3.93;;;7.80;68.80;;;;;;5080026;28;20442;-67
2022/04/04 08:53:05;;;;;;;5.97;3.43;;;7.30;70.90;;;;;;5064229;28;20448;-68
2022/04/04 08:55:31;;;;;;;6.07;2.83;;;7.00;73.40;;;;;;5064066;28;20484;-67
2022/04/04 08:57:57;;;;;;;4.53;2.57;;;7.20;71.90;;;;;;5067543;28;20438;-67
2022/04/04 09:00:24;;;;;;;5.00;2.90;;;7.30;74.20;;;;;;5077956;28;20463;-67
2022/04/04 09:03:19;;;;;;;5.40;3.27;;;7.40;74.00;;;;;;5073970;28;21274;-66
2022/04/04 09:05:52;;;;;;;6.80;3.03;;;7.80;73.30;;;;;;5069848;28;20452;-67
2022/04/04 09:08:19;;;;;;;5.70;3.10;;;7.90;69.70;;;;;;5071052;28;20415;-68
2022/04/04 09:10:45;;;;;;;6.80;3.70;;;7.70;68.80;;;;;;5072529;28;20411;-68
2022/04/04 09:13:12;;;;;;;11.30;3.20;;;7.60;70.80;;;;;;5073134;28;20433;-68
2022/04/04 09:16:06;;;;;;;8.97;3.40;;;7.50;69.80;;;;;;5073646;28;20513;-68
2022/04/04 09:18:39;;;;;;;7.27;4.30;;;7.20;73.70;;;;;;5066956;28;21073;-68
2022/04/04 09:21:06;;;;;;;8.40;4.17;;;7.20;76.50;;;;;;5076534;28;20546;-66
2022/04/04 09:23:33;;;;;;;6.20;3.23;;;7.30;72.70;;;;;;5072501;28;20985;-67
2022/04/04 09:26:00;;;;;;;10.27;4.60;;;7.40;75.60;;;;;;5075274;28;20429;-69
2022/04/04 09:28:26;;;;;;;7.93;3.37;;;7.50;75.30;;;;;;5077946;28;20917;-68
2022/04/04 09:31:08;;;;;;;9.43;4.23;;;7.50;75.00;;;;;;5071649;28;20447;-67
2022/04/04 09:33:39;;;;;;;7.43;3.23;;;7.80;74.30;;;;;;5065779;28;20522;-67
2022/04/04 09:36:05;;;;;;;10.10;3.93;;;7.40;69.80;;;;;;5063891;28;20477;-68
2022/04/04 09:38:33;;;;;;;6.23;3.30;;;7.20;73.40;;;;;;5065461;28;20826;-67
2022/04/04 09:41:14;;;;;;;6.60;2.40;;;7.30;72.30;;;;;;5063765;28;20459;-67
2022/04/04 09:43:54;;;;;;;5.20;3.20;;;6.70;69.80;;;;;;5063320;28;20485;-67
2022/04/04 09:46:20;;;;;;;8.13;3.27;;;7.00;71.60;;;;;;5067138;28;20426;-67
2022/04/04 09:49:01;;;;;;;6.20;3.23;;;7.10;70.20;;;;;;5072553;28;20851;-65
2022/04/04 09:51:42;;;;;;;4.43;2.43;;;6.90;68.90;;;;;;5076761;28;20524;-67
2022/04/04 09:54:15;;;;;;;5.10;2.80;;;6.80;71.50;;;;;;5072331;28;20481;-69
2022/04/04 09:56:41;;;;;;;6.10;3.03;;;6.90;69.70;;;;;;5077064;28;20422;-67
2022/04/04 09:59:09;;;;;;;9.23;4.50;;;6.30;71.90;;;;;;5076985;28;20429;-67
2022/04/04 10:01:35;;;;;;;10.97;4.07;;;6.00;72.60;;;;;;5082178;28;21085;-66
2022/04/04 10:04:02;;;;;;;12.23;3.10;;;6.10;75.80;;;;;;5072542;28;20463;-68
2022/04/04 10:06:29;;;;;;;8.53;2.83;;;6.00;74.10;;;;;;5070980;28;20185;-67
2022/04/04 10:08:59;;;;;;;4.83;2.30;;;5.70;74.40;;;;;;5080773;28;20535;-68
2022/04/04 10:11:27;;;;;;;7.33;3.57;;;5.80;78.10;;;;;;5085197;28;20461;-67
2022/04/04 10:13:54;;;;;;;4.83;2.93;;;5.90;79.90;;;;;;5078310;28;21294;-67
2022/04/04 10:16:22;;;;;;;5.70;3.00;;;5.90;76.00;;;;;;5070190;28;20544;-67
2022/04/04 10:18:48;;;;;;;6.57;3.00;;;6.00;74.60;;;;;;5077285;28;21016;-66
2022/04/04 10:21:14;;;;;;;4.87;2.67;;;5.90;77.20;;;;;;5064435;28;20459;-67
2022/04/04 10:23:41;;;;;;;5.80;3.30;;;5.70;76.10;;;;;;5071767;28;20471;-66
2022/04/04 10:26:08;;;;;;;4.87;3.00;;;5.70;73.30;;;;;;5064832;28;20625;-69
2022/04/04 10:28:35;;;;;;;4.03;2.87;;;5.60;74.30;;;;;;5073465;28;20500;-67
2022/04/04 10:31:23;;;;;;;4.63;2.60;;;5.50;74.60;;;;;;5074848;28;20438;-66
2022/04/04 10:33:50;;;;;;;3.50;2.60;;;5.60;75.00;;;;;;5065745;28;20407;-64
2022/04/04 10:36:25;;;;;;;4.87;3.10;;;5.50;74.50;;;;;;5070746;28;20476;-66
2022/04/04 10:38:54;;;;;;;7.87;2.73;;;5.30;74.50;;;;;;5078511;28;20417;-65
2022/04/04 10:41:23;;;;;;;3.80;2.40;;;5.10;75.70;;;;;;5072141;28;20451;-65
2022/04/04 10:43:50;;;;;;;6.10;3.60;;;5.00;76.50;;;;;;5083192;28;20466;-63
2022/04/04 10:46:18;;;;;;;6.73;2.80;;;5.20;75.80;;;;;;5071378;28;20485;-65
2022/04/04 10:49:00;;;;;;;5.63;3.60;;;5.20;74.70;;;;;;5081241;28;20427;-65
2022/04/04 10:51:31;;;;;;;5.23;2.90;;;5.50;76.60;;;;;;5059275;28;20857;-65
2022/04/04 10:54:07;;;;;;;3.90;2.10;;;5.80;77.30;;;;;;5076465;28;20423;-65
2022/04/04 10:56:39;;;;;;;5.77;2.60;;;5.90;76.50;;;;;;5082361;28;20512;-69
2022/04/04 10:59:19;;;;;;;6.90;3.20;;;6.30;78.40;;;;;;5080667;28;20479;-66
2022/04/04 11:02:06;;;;;;;4.97;2.43;;;6.40;75.40;;;;;;5081713;28;20435;-66
2022/04/04 11:04:37;;;;;;;3.57;2.67;;;6.10;72.30;;;;;;5082479;28;20514;-65
2022/04/04 11:09:53;;;;;;;4.13;2.50;;;5.60;73.50;;;;;;5072389;28;20910;-66
2022/04/04 11:12:22;;;;;;;3.70;1.90;;;5.80;76.30;;;;;;5078556;28;20439;-66
2022/04/04 11:14:54;;;;;;;5.17;2.83;;;6.00;78.30;;;;;;5074454;28;20543;-66
2022/04/04 11:17:30;;;;;;;3.63;2.20;;;6.00;75.60;;;;;;5074072;28;20442;-67
2022/04/04 11:20:10;;;;;;;4.33;2.80;;;6.20;75.50;;;;;;5069126;28;20959;-66
2022/04/04 11:22:42;;;;;;;6.33;3.30;;;6.30;73.40;;;;;;5089654;28;20609;-67
2022/04/04 11:25:14;;;;;;;3.63;2.17;;;6.10;74.10;;;;;;5076877;28;20993;-66
2022/04/04 11:27:40;;;;;;;5.73;2.73;;;5.80;75.50;;;;;;5075412;28;20421;-66
2022/04/04 11:30:15;;;;;;;5.60;2.77;;;5.90;79.10;;;;;;5072841;28;20427;-67
2022/04/04 11:32:42;;;;;;;5.10;3.20;;;6.30;80.60;;;;;;5074777;28;20671;-66
2022/04/04 11:35:18;;;;;;;13.83;3.07;;;6.60;76.20;;;;;;5075530;28;21121;-66
2022/04/04 11:37:44;;;;;;;5.03;2.80;;;6.60;71.90;;;;;;5075625;28;20441;-66
2022/04/04 11:40:15;;;;;;;7.63;3.07;;;6.70;73.30;;;;;;5075865;28;20414;-67
2022/04/04 11:42:44;;;;;;;5.37;2.77;;;6.80;75.90;;;;;;5071740;28;20562;-66
2022/04/04 11:45:15;;;;;;;3.70;2.13;;;7.00;75.90;;;;;;5076761;28;20472;-65
2022/04/04 11:47:48;;;;;;;6.67;2.80;;;7.10;75.10;;;;;;5080547;28;20855;-66
2022/04/04 11:50:14;;;;;;;6.60;2.43;;;6.90;72.00;;;;;;5078298;28;20465;-66
2022/04/04 11:52:54;;;;;;;5.80;2.70;;;6.80;73.10;;;;;;5067301;28;20482;-66
2022/04/04 11:55:21;;;;;;;9.90;3.80;;;6.50;75.40;;;;;;5075811;28;20196;-66
2022/04/04 11:57:49;;;;;;;4.97;3.17;;;6.10;77.00;;;;;;5076433;28;20482;-64
2022/04/04 12:00:20;;;;;;;6.90;3.23;;;6.20;77.10;;;;;;5082361;28;20879;-65
2022/04/04 12:02:47;;;;;;;6.20;3.03;;;6.30;76.80;;;;;;5078404;28;20482;-64
2022/04/04 12:05:14;;;;;;;5.10;2.93;;;6.40;78.10;;;;;;5071024;28;20462;-65
2022/04/04 12:07:44;;;;;;;5.77;2.90;;;6.20;76.70;;;;;;5074758;28;20464;-65
2022/04/04 12:10:11;;;;;;;4.87;2.80;;;6.10;77.40;;;;;;5074650;28;20435;-65
2022/04/04 12:12:38;;;;;;;10.87;3.57;;;6.20;76.30;;;;;;5076387;28;20434;-65
2022/04/04 12:15:04;;;;;;;5.97;2.80;;;6.40;76.50;;;;;;5076073;28;20433;-65
2022/04/04 12:17:29;;;;;;;5.63;3.43;;;6.60;78.00;;;;;;5075303;28;20430;-64
2022/04/04 12:19:55;;;;;;;7.80;3.90;;;6.90;80.00;;;;;;5077578;28;20569;-65
2022/04/04 12:25:11;;;;;;;7.77;3.23;;;6.90;78.30;;;;;;5085619;28;20265;-64
2022/04/04 12:27:57;;;;;;;4.67;2.87;;;6.70;74.70;;;;;;5083087;28;20443;-66
2022/04/04 12:30:30;;;;;;;8.93;3.90;;;7.00;73.80;;;;;;5072148;28;20871;-65
2022/04/04 12:33:12;;;;;;;9.13;3.80;;;7.10;73.50;;;;;;5077121;28;20446;-65
2022/04/04 12:35:46;;;;;;;6.23;3.73;;;7.10;76.20;;;;;;5073563;28;20435;-66
2022/04/04 12:38:42;;;;;;;7.73;4.23;;;7.50;74.50;;;;;;5073457;28;20549;-66
2022/04/04 12:41:16;;;;;;;7.07;3.50;;;7.60;77.90;;;;;;5077235;28;20447;-66
2022/04/04 12:43:57;;;;;;;7.23;3.47;;;7.50;73.70;;;;;;5077006;28;20633;-66
2022/04/04 12:46:25;;;;;;;6.60;3.30;;;7.20;74.40;;;;;;5077729;28;20732;-66
2022/04/04 12:48:51;;;;;;;9.83;4.60;;;7.30;75.40;;;;;;5074955;28;20453;-66
2022/04/04 12:51:30;;;;;;;5.17;2.90;;;7.30;75.30;;;;;;5079931;28;20431;-65
2022/04/04 12:54:00;;;;;;;7.77;3.50;;;7.30;74.80;;;;;;5075609;28;20185;-66
2022/04/04 12:56:27;;;;;;;7.73;3.63;;;7.20;75.60;;;;;;5072309;28;20425;-65
2022/04/04 12:59:08;;;;;;;8.20;4.10;;;7.30;76.80;;;;;;5072424;28;21650;-65